sensor_id;sensor_type;location;lat;lon;timestamp;P1;durP1;ratioP1;P2;durP2;ratioP2
13807;SDS011;40769;51.512;5.494;2022-08-19T00:01:19;5.10;;;4.80;;
13807;SDS011;40769;51.512;5.494;2022-08-19T00:03:45;5.93;;;5.53;;
13807;SDS011;40769;51.512;5.494;2022-08-19T00:06:10;6.45;;;6.05;;
13807;SDS011;40769;51.512;5.494;2022-08-19T00:08:36;7.40;;;6.90;;
13807;SDS011;40769;51.512;5.494;2022-08-19T00:11:02;8.43;;;7.72;;
13807;SDS011;40769;51.512;5.494;2022-08-19T00:13:27;9.13;;;8.43;;
13807;SDS011;40769;51.512;5.494;2022-08-19T00:15:54;9.63;;;8.95;;
13807;SDS011;40769;51.512;5.494;2022-08-19T00:18:20;10.57;;;9.88;;
13807;SDS011;40769;51.512;5.494;2022-08-19T00:20:46;10.90;;;10.10;;
13807;SDS011;40769;51.512;5.494;2022-08-19T00:23:11;10.70;;;9.90;;
13807;SDS011;40769;51.512;5.494;2022-08-19T00:25:37;9.98;;;9.20;;
13807;SDS011;40769;51.512;5.494;2022-08-19T00:28:03;9.25;;;8.55;;
13807;SDS011;40769;51.512;5.494;2022-08-19T00:30:29;8.30;;;7.70;;
13807;SDS011;40769;51.512;5.494;2022-08-19T00:32:55;10.60;;;9.70;;
13807;SDS011;40769;51.512;5.494;2022-08-19T00:35:21;12.05;;;11.15;;
13807;SDS011;40769;51.512;5.494;2022-08-19T00:37:48;9.73;;;8.93;;
13807;SDS011;40769;51.512;5.494;2022-08-19T00:40:14;10.48;;;9.63;;
13807;SDS011;40769;51.512;5.494;2022-08-19T00:42:43;11.48;;;10.68;;
13807;SDS011;40769;51.512;5.494;2022-08-19T00:45:12;10.27;;;9.55;;
13807;SDS011;40769;51.512;5.494;2022-08-19T00:47:48;8.68;;;8.07;;
13807;SDS011;40769;51.512;5.494;2022-08-19T00:50:15;11.27;;;10.48;;
13807;SDS011;40769;51.512;5.494;2022-08-19T00:52:43;9.65;;;8.95;;
13807;SDS011;40769;51.512;5.494;2022-08-19T00:55:13;11.50;;;10.68;;
13807;SDS011;40769;51.512;5.494;2022-08-19T00:57:44;12.10;;;11.20;;
13807;SDS011;40769;51.512;5.494;2022-08-19T01:00:14;8.73;;;8.13;;
13807;SDS011;40769;51.512;5.494;2022-08-19T01:02:42;14.35;;;13.25;;
13807;SDS011;40769;51.512;5.494;2022-08-19T01:05:09;17.75;;;16.35;;
13807;SDS011;40769;51.512;5.494;2022-08-19T01:07:37;16.80;;;15.52;;
13807;SDS011;40769;51.512;5.494;2022-08-19T01:10:06;16.38;;;15.07;;
13807;SDS011;40769;51.512;5.494;2022-08-19T01:12:35;14.60;;;13.50;;
13807;SDS011;40769;51.512;5.494;2022-08-19T01:15:02;14.00;;;12.90;;
13807;SDS011;40769;51.512;5.494;2022-08-19T01:17:30;16.90;;;15.55;;
13807;SDS011;40769;51.512;5.494;2022-08-19T01:19:56;15.55;;;14.35;;
13807;SDS011;40769;51.512;5.494;2022-08-19T01:22:31;11.68;;;10.80;;
13807;SDS011;40769;51.512;5.494;2022-08-19T01:25:04;14.30;;;13.30;;
13807;SDS011;40769;51.512;5.494;2022-08-19T01:27:38;12.70;;;11.70;;
13807;SDS011;40769;51.512;5.494;2022-08-19T01:30:06;11.70;;;10.80;;
13807;SDS011;40769;51.512;5.494;2022-08-19T01:32:32;18.63;;;17.23;;
13807;SDS011;40769;51.512;5.494;2022-08-19T01:34:58;14.80;;;13.70;;
13807;SDS011;40769;51.512;5.494;2022-08-19T01:37:26;17.33;;;15.93;;
13807;SDS011;40769;51.512;5.494;2022-08-19T01:39:52;16.52;;;15.23;;
13807;SDS011;40769;51.512;5.494;2022-08-19T01:42:18;16.15;;;14.82;;
13807;SDS011;40769;51.512;5.494;2022-08-19T01:44:44;20.95;;;19.25;;
13807;SDS011;40769;51.512;5.494;2022-08-19T01:47:10;14.70;;;13.50;;
13807;SDS011;40769;51.512;5.494;2022-08-19T01:49:36;18.52;;;17.02;;
13807;SDS011;40769;51.512;5.494;2022-08-19T01:52:03;13.63;;;12.63;;
13807;SDS011;40769;51.512;5.494;2022-08-19T01:54:30;17.00;;;15.68;;
13807;SDS011;40769;51.512;5.494;2022-08-19T01:57:14;14.88;;;13.77;;
13807;SDS011;40769;51.512;5.494;2022-08-19T01:59:41;18.30;;;16.73;;
13807;SDS011;40769;51.512;5.494;2022-08-19T02:02:09;16.02;;;14.73;;
13807;SDS011;40769;51.512;5.494;2022-08-19T02:04:35;14.45;;;13.35;;
13807;SDS011;40769;51.512;5.494;2022-08-19T02:07:02;14.25;;;13.15;;
13807;SDS011;40769;51.512;5.494;2022-08-19T02:09:28;12.30;;;11.40;;
13807;SDS011;40769;51.512;5.494;2022-08-19T02:11:56;13.30;;;11.32;;
13807;SDS011;40769;51.512;5.494;2022-08-19T02:14:21;11.85;;;10.85;;
13807;SDS011;40769;51.512;5.494;2022-08-19T02:16:47;12.77;;;11.82;;
13807;SDS011;40769;51.512;5.494;2022-08-19T02:19:13;13.15;;;12.15;;
13807;SDS011;40769;51.512;5.494;2022-08-19T02:21:38;11.05;;;10.23;;
13807;SDS011;40769;51.512;5.494;2022-08-19T02:24:04;10.25;;;9.55;;
13807;SDS011;40769;51.512;5.494;2022-08-19T02:26:31;10.38;;;9.60;;
13807;SDS011;40769;51.512;5.494;2022-08-19T02:28:57;12.27;;;11.35;;
13807;SDS011;40769;51.512;5.494;2022-08-19T02:31:24;14.15;;;13.05;;
13807;SDS011;40769;51.512;5.494;2022-08-19T02:33:50;10.65;;;9.77;;
13807;SDS011;40769;51.512;5.494;2022-08-19T02:36:17;11.32;;;10.50;;
13807;SDS011;40769;51.512;5.494;2022-08-19T02:38:43;11.40;;;10.55;;
13807;SDS011;40769;51.512;5.494;2022-08-19T02:41:14;11.05;;;10.25;;
13807;SDS011;40769;51.512;5.494;2022-08-19T02:43:42;11.10;;;10.23;;
13807;SDS011;40769;51.512;5.494;2022-08-19T02:46:12;15.18;;;13.98;;
13807;SDS011;40769;51.512;5.494;2022-08-19T02:48:39;15.38;;;14.10;;
13807;SDS011;40769;51.512;5.494;2022-08-19T02:51:05;12.27;;;11.38;;
13807;SDS011;40769;51.512;5.494;2022-08-19T02:53:30;13.77;;;12.68;;
13807;SDS011;40769;51.512;5.494;2022-08-19T02:55:56;14.60;;;13.50;;
13807;SDS011;40769;51.512;5.494;2022-08-19T02:58:22;16.42;;;15.18;;
13807;SDS011;40769;51.512;5.494;2022-08-19T03:00:50;15.88;;;14.68;;
13807;SDS011;40769;51.512;5.494;2022-08-19T03:03:17;16.15;;;14.95;;
13807;SDS011;40769;51.512;5.494;2022-08-19T03:05:43;12.75;;;11.77;;
13807;SDS011;40769;51.512;5.494;2022-08-19T03:08:10;13.63;;;12.57;;
13807;SDS011;40769;51.512;5.494;2022-08-19T03:10:41;16.55;;;15.30;;
13807;SDS011;40769;51.512;5.494;2022-08-19T03:13:09;18.52;;;16.95;;
13807;SDS011;40769;51.512;5.494;2022-08-19T03:15:39;21.60;;;19.90;;
13807;SDS011;40769;51.512;5.494;2022-08-19T03:18:06;23.17;;;21.27;;
13807;SDS011;40769;51.512;5.494;2022-08-19T03:20:32;19.55;;;18.05;;
13807;SDS011;40769;51.512;5.494;2022-08-19T03:22:57;18.63;;;17.15;;
13807;SDS011;40769;51.512;5.494;2022-08-19T03:25:23;22.88;;;20.98;;
13807;SDS011;40769;51.512;5.494;2022-08-19T03:27:49;22.27;;;20.38;;
13807;SDS011;40769;51.512;5.494;2022-08-19T03:30:14;16.45;;;15.25;;
13807;SDS011;40769;51.512;5.494;2022-08-19T03:32:40;20.23;;;18.52;;
13807;SDS011;40769;51.512;5.494;2022-08-19T03:35:06;22.08;;;20.25;;
13807;SDS011;40769;51.512;5.494;2022-08-19T03:37:31;25.08;;;22.90;;
13807;SDS011;40769;51.512;5.494;2022-08-19T03:39:57;17.77;;;16.38;;
13807;SDS011;40769;51.512;5.494;2022-08-19T03:42:23;18.92;;;17.40;;
13807;SDS011;40769;51.512;5.494;2022-08-19T03:44:51;21.58;;;19.77;;
13807;SDS011;40769;51.512;5.494;2022-08-19T03:47:17;20.13;;;18.45;;
13807;SDS011;40769;51.512;5.494;2022-08-19T03:49:43;14.65;;;13.45;;
13807;SDS011;40769;51.512;5.494;2022-08-19T03:52:09;12.98;;;11.95;;
13807;SDS011;40769;51.512;5.494;2022-08-19T03:54:35;16.05;;;14.75;;
13807;SDS011;40769;51.512;5.494;2022-08-19T03:57:02;23.88;;;21.88;;
13807;SDS011;40769;51.512;5.494;2022-08-19T03:59:30;20.48;;;18.77;;
13807;SDS011;40769;51.512;5.494;2022-08-19T04:02:02;17.02;;;15.63;;
13807;SDS011;40769;51.512;5.494;2022-08-19T04:04:33;14.77;;;13.55;;
13807;SDS011;40769;51.512;5.494;2022-08-19T04:06:58;15.40;;;14.02;;
13807;SDS011;40769;51.512;5.494;2022-08-19T04:09:24;14.20;;;13.00;;
13807;SDS011;40769;51.512;5.494;2022-08-19T04:11:51;14.27;;;13.07;;
13807;SDS011;40769;51.512;5.494;2022-08-19T04:14:19;14.30;;;13.13;;
13807;SDS011;40769;51.512;5.494;2022-08-19T04:16:48;15.10;;;13.88;;
13807;SDS011;40769;51.512;5.494;2022-08-19T04:19:14;14.55;;;13.35;;
13807;SDS011;40769;51.512;5.494;2022-08-19T04:21:42;15.93;;;14.55;;
13807;SDS011;40769;51.512;5.494;2022-08-19T04:24:10;15.07;;;13.88;;
13807;SDS011;40769;51.512;5.494;2022-08-19T04:26:37;16.13;;;14.82;;
13807;SDS011;40769;51.512;5.494;2022-08-19T04:29:05;15.13;;;13.73;;
13807;SDS011;40769;51.512;5.494;2022-08-19T04:31:39;15.55;;;14.15;;
13807;SDS011;40769;51.512;5.494;2022-08-19T04:34:07;14.10;;;13.00;;
13807;SDS011;40769;51.512;5.494;2022-08-19T04:36:36;15.57;;;14.30;;
13807;SDS011;40769;51.512;5.494;2022-08-19T04:39:06;15.40;;;14.20;;
13807;SDS011;40769;51.512;5.494;2022-08-19T04:41:33;15.88;;;14.55;;
13807;SDS011;40769;51.512;5.494;2022-08-19T04:44:18;13.95;;;12.85;;
13807;SDS011;40769;51.512;5.494;2022-08-19T04:46:45;14.45;;;13.25;;
13807;SDS011;40769;51.512;5.494;2022-08-19T04:49:12;14.55;;;13.43;;
13807;SDS011;40769;51.512;5.494;2022-08-19T04:51:40;14.10;;;13.00;;
13807;SDS011;40769;51.512;5.494;2022-08-19T04:54:07;14.95;;;13.82;;
13807;SDS011;40769;51.512;5.494;2022-08-19T04:56:33;16.15;;;14.85;;
13807;SDS011;40769;51.512;5.494;2022-08-19T04:58:59;14.35;;;13.23;;
13807;SDS011;40769;51.512;5.494;2022-08-19T05:01:29;14.65;;;13.45;;
13807;SDS011;40769;51.512;5.494;2022-08-19T05:03:58;13.13;;;12.13;;
13807;SDS011;40769;51.512;5.494;2022-08-19T05:06:25;13.70;;;12.60;;
13807;SDS011;40769;51.512;5.494;2022-08-19T05:08:52;15.40;;;14.10;;
13807;SDS011;40769;51.512;5.494;2022-08-19T05:11:19;16.40;;;15.00;;
13807;SDS011;40769;51.512;5.494;2022-08-19T05:13:47;14.57;;;13.38;;
13807;SDS011;40769;51.512;5.494;2022-08-19T05:16:14;15.77;;;14.48;;
13807;SDS011;40769;51.512;5.494;2022-08-19T05:18:41;16.05;;;14.73;;
13807;SDS011;40769;51.512;5.494;2022-08-19T05:21:26;18.15;;;16.55;;
13807;SDS011;40769;51.512;5.494;2022-08-19T05:24:11;21.08;;;19.15;;
13807;SDS011;40769;51.512;5.494;2022-08-19T05:26:39;24.40;;;22.17;;
13807;SDS011;40769;51.512;5.494;2022-08-19T05:29:09;26.35;;;23.95;;
13807;SDS011;40769;51.512;5.494;2022-08-19T05:31:35;25.98;;;23.67;;
13807;SDS011;40769;51.512;5.494;2022-08-19T05:34:03;26.80;;;24.27;;
13807;SDS011;40769;51.512;5.494;2022-08-19T05:36:33;25.27;;;23.00;;
13807;SDS011;40769;51.512;5.494;2022-08-19T05:39:01;35.15;;;31.70;;
13807;SDS011;40769;51.512;5.494;2022-08-19T05:41:27;27.15;;;24.67;;
13807;SDS011;40769;51.512;5.494;2022-08-19T05:43:56;33.03;;;29.92;;
13807;SDS011;40769;51.512;5.494;2022-08-19T05:46:22;31.05;;;28.00;;
13807;SDS011;40769;51.512;5.494;2022-08-19T05:48:49;38.88;;;35.15;;
13807;SDS011;40769;51.512;5.494;2022-08-19T05:51:15;38.42;;;34.72;;
13807;SDS011;40769;51.512;5.494;2022-08-19T05:53:41;28.85;;;26.08;;
13807;SDS011;40769;51.512;5.494;2022-08-19T05:56:11;33.78;;;30.60;;
13807;SDS011;40769;51.512;5.494;2022-08-19T05:58:40;29.08;;;26.35;;
13807;SDS011;40769;51.512;5.494;2022-08-19T06:01:11;29.02;;;26.17;;
13807;SDS011;40769;51.512;5.494;2022-08-19T06:03:39;36.17;;;32.65;;
13807;SDS011;40769;51.512;5.494;2022-08-19T06:06:06;42.08;;;37.92;;
13807;SDS011;40769;51.512;5.494;2022-08-19T06:08:32;38.83;;;35.15;;
13807;SDS011;40769;51.512;5.494;2022-08-19T06:11:11;30.60;;;27.80;;
13807;SDS011;40769;51.512;5.494;2022-08-19T06:13:38;36.17;;;32.63;;
13807;SDS011;40769;51.512;5.494;2022-08-19T06:16:03;37.15;;;33.70;;
13807;SDS011;40769;51.512;5.494;2022-08-19T06:18:29;35.85;;;32.35;;
13807;SDS011;40769;51.512;5.494;2022-08-19T06:20:55;29.13;;;26.50;;
13807;SDS011;40769;51.512;5.494;2022-08-19T06:23:20;26.25;;;23.83;;
13807;SDS011;40769;51.512;5.494;2022-08-19T06:25:46;24.00;;;21.75;;
13807;SDS011;40769;51.512;5.494;2022-08-19T06:28:12;24.17;;;22.00;;
13807;SDS011;40769;51.512;5.494;2022-08-19T06:30:37;28.35;;;25.77;;
13807;SDS011;40769;51.512;5.494;2022-08-19T06:33:03;27.30;;;24.77;;
13807;SDS011;40769;51.512;5.494;2022-08-19T06:35:29;28.90;;;26.27;;
13807;SDS011;40769;51.512;5.494;2022-08-19T06:37:54;31.30;;;28.35;;
13807;SDS011;40769;51.512;5.494;2022-08-19T06:40:20;28.58;;;26.08;;
13807;SDS011;40769;51.512;5.494;2022-08-19T06:42:46;20.25;;;18.45;;
13807;SDS011;40769;51.512;5.494;2022-08-19T06:45:13;26.45;;;24.02;;
13807;SDS011;40769;51.512;5.494;2022-08-19T06:47:39;22.48;;;20.40;;
13807;SDS011;40769;51.512;5.494;2022-08-19T06:50:13;23.60;;;21.45;;
13807;SDS011;40769;51.512;5.494;2022-08-19T06:52:39;22.45;;;20.45;;
13807;SDS011;40769;51.512;5.494;2022-08-19T06:55:05;20.30;;;18.50;;
13807;SDS011;40769;51.512;5.494;2022-08-19T06:57:31;16.60;;;15.10;;
13807;SDS011;40769;51.512;5.494;2022-08-19T06:59:57;15.50;;;14.10;;
13807;SDS011;40769;51.512;5.494;2022-08-19T07:02:25;19.38;;;17.65;;
13807;SDS011;40769;51.512;5.494;2022-08-19T07:04:51;27.45;;;24.63;;
13807;SDS011;40769;51.512;5.494;2022-08-19T07:07:23;21.83;;;19.75;;
13807;SDS011;40769;51.512;5.494;2022-08-19T07:09:49;22.92;;;20.75;;
13807;SDS011;40769;51.512;5.494;2022-08-19T07:12:15;22.20;;;20.15;;
13807;SDS011;40769;51.512;5.494;2022-08-19T07:14:41;25.08;;;22.67;;
13807;SDS011;40769;51.512;5.494;2022-08-19T07:17:08;24.40;;;22.10;;
13807;SDS011;40769;51.512;5.494;2022-08-19T07:19:36;23.00;;;20.92;;
13807;SDS011;40769;51.512;5.494;2022-08-19T07:22:03;19.55;;;17.70;;
13807;SDS011;40769;51.512;5.494;2022-08-19T07:24:30;19.48;;;17.60;;
13807;SDS011;40769;51.512;5.494;2022-08-19T07:26:57;20.15;;;18.17;;
13807;SDS011;40769;51.512;5.494;2022-08-19T07:29:28;19.08;;;17.33;;
13807;SDS011;40769;51.512;5.494;2022-08-19T07:31:55;19.63;;;17.77;;
13807;SDS011;40769;51.512;5.494;2022-08-19T07:34:22;19.95;;;18.15;;
13807;SDS011;40769;51.512;5.494;2022-08-19T07:36:48;24.52;;;18.42;;
13807;SDS011;40769;51.512;5.494;2022-08-19T07:39:15;14.48;;;13.10;;
13807;SDS011;40769;51.512;5.494;2022-08-19T07:41:44;13.18;;;11.98;;
13807;SDS011;40769;51.512;5.494;2022-08-19T07:44:11;16.83;;;15.35;;
13807;SDS011;40769;51.512;5.494;2022-08-19T07:46:38;14.55;;;13.27;;
13807;SDS011;40769;51.512;5.494;2022-08-19T07:49:06;20.15;;;18.27;;
13807;SDS011;40769;51.512;5.494;2022-08-19T07:51:34;17.00;;;15.50;;
13807;SDS011;40769;51.512;5.494;2022-08-19T07:54:00;18.77;;;17.10;;
13807;SDS011;40769;51.512;5.494;2022-08-19T07:56:26;18.00;;;16.38;;
13807;SDS011;40769;51.512;5.494;2022-08-19T07:58:52;19.35;;;17.70;;
13807;SDS011;40769;51.512;5.494;2022-08-19T08:01:25;21.75;;;19.75;;
13807;SDS011;40769;51.512;5.494;2022-08-19T08:03:52;21.88;;;19.85;;
13807;SDS011;40769;51.512;5.494;2022-08-19T08:06:38;19.77;;;18.10;;
13807;SDS011;40769;51.512;5.494;2022-08-19T08:09:23;14.27;;;13.07;;
13807;SDS011;40769;51.512;5.494;2022-08-19T08:12:09;20.75;;;18.95;;
13807;SDS011;40769;51.512;5.494;2022-08-19T08:14:40;16.65;;;15.15;;
13807;SDS011;40769;51.512;5.494;2022-08-19T08:17:09;22.52;;;20.58;;
13807;SDS011;40769;51.512;5.494;2022-08-19T08:19:36;15.65;;;14.35;;
13807;SDS011;40769;51.512;5.494;2022-08-19T08:22:02;23.15;;;21.17;;
13807;SDS011;40769;51.512;5.494;2022-08-19T08:24:29;19.08;;;17.55;;
13807;SDS011;40769;51.512;5.494;2022-08-19T08:26:56;18.15;;;16.65;;
13807;SDS011;40769;51.512;5.494;2022-08-19T08:29:24;20.73;;;19.02;;
13807;SDS011;40769;51.512;5.494;2022-08-19T08:31:52;24.58;;;22.48;;
13807;SDS011;40769;51.512;5.494;2022-08-19T08:34:18;25.85;;;23.65;;
13807;SDS011;40769;51.512;5.494;2022-08-19T08:36:45;21.35;;;19.65;;
13807;SDS011;40769;51.512;5.494;2022-08-19T08:39:12;21.58;;;19.88;;
13807;SDS011;40769;51.512;5.494;2022-08-19T08:44:38;22.63;;;20.52;;
13807;SDS011;40769;51.512;5.494;2022-08-19T08:47:23;20.70;;;19.00;;
13807;SDS011;40769;51.512;5.494;2022-08-19T08:49:53;20.35;;;18.67;;
13807;SDS011;40769;51.512;5.494;2022-08-19T08:54:53;24.88;;;22.27;;
13807;SDS011;40769;51.512;5.494;2022-08-19T08:57:26;22.17;;;20.35;;
13807;SDS011;40769;51.512;5.494;2022-08-19T08:59:56;21.58;;;19.92;;
13807;SDS011;40769;51.512;5.494;2022-08-19T09:02:24;19.05;;;17.58;;
13807;SDS011;40769;51.512;5.494;2022-08-19T09:04:50;21.35;;;19.55;;
13807;SDS011;40769;51.512;5.494;2022-08-19T09:09:52;17.27;;;15.90;;
13807;SDS011;40769;51.512;5.494;2022-08-19T09:15:45;17.75;;;16.35;;
13807;SDS011;40769;51.512;5.494;2022-08-19T09:18:16;20.02;;;18.48;;
13807;SDS011;40769;51.512;5.494;2022-08-19T09:20:42;14.80;;;13.60;;
13807;SDS011;40769;51.512;5.494;2022-08-19T09:23:08;15.93;;;14.63;;
13807;SDS011;40769;51.512;5.494;2022-08-19T09:25:34;16.38;;;15.05;;
13807;SDS011;40769;51.512;5.494;2022-08-19T09:27:59;18.92;;;17.50;;
13807;SDS011;40769;51.512;5.494;2022-08-19T09:30:30;20.63;;;18.92;;
13807;SDS011;40769;51.512;5.494;2022-08-19T09:32:58;15.85;;;14.63;;
13807;SDS011;40769;51.512;5.494;2022-08-19T09:35:25;17.60;;;16.20;;
13807;SDS011;40769;51.512;5.494;2022-08-19T09:37:53;21.83;;;19.92;;
13807;SDS011;40769;51.512;5.494;2022-08-19T09:40:20;13.93;;;12.90;;
13807;SDS011;40769;51.512;5.494;2022-08-19T09:42:46;18.95;;;17.35;;
13807;SDS011;40769;51.512;5.494;2022-08-19T09:45:13;22.40;;;20.40;;
13807;SDS011;40769;51.512;5.494;2022-08-19T09:47:39;18.73;;;17.25;;
13807;SDS011;40769;51.512;5.494;2022-08-19T09:50:05;20.15;;;18.55;;
13807;SDS011;40769;51.512;5.494;2022-08-19T09:52:33;17.58;;;16.17;;
13807;SDS011;40769;51.512;5.494;2022-08-19T09:55:01;22.23;;;20.33;;
13807;SDS011;40769;51.512;5.494;2022-08-19T09:57:28;22.83;;;20.90;;
13807;SDS011;40769;51.512;5.494;2022-08-19T09:59:54;22.40;;;20.67;;
13807;SDS011;40769;51.512;5.494;2022-08-19T10:02:19;20.55;;;18.92;;
13807;SDS011;40769;51.512;5.494;2022-08-19T10:04:45;25.42;;;23.33;;
13807;SDS011;40769;51.512;5.494;2022-08-19T10:07:29;22.95;;;21.05;;
13807;SDS011;40769;51.512;5.494;2022-08-19T10:09:55;20.38;;;18.73;;
13807;SDS011;40769;51.512;5.494;2022-08-19T10:12:21;21.35;;;19.52;;
13807;SDS011;40769;51.512;5.494;2022-08-19T10:14:47;21.67;;;19.92;;
13807;SDS011;40769;51.512;5.494;2022-08-19T10:17:13;21.63;;;19.73;;
13807;SDS011;40769;51.512;5.494;2022-08-19T10:19:39;23.35;;;21.15;;
13807;SDS011;40769;51.512;5.494;2022-08-19T10:22:05;22.30;;;20.40;;
13807;SDS011;40769;51.512;5.494;2022-08-19T10:24:39;21.02;;;19.20;;
13807;SDS011;40769;51.512;5.494;2022-08-19T10:27:05;18.20;;;16.73;;
13807;SDS011;40769;51.512;5.494;2022-08-19T10:29:30;18.48;;;16.90;;
13807;SDS011;40769;51.512;5.494;2022-08-19T10:32:00;15.52;;;14.27;;
13807;SDS011;40769;51.512;5.494;2022-08-19T10:34:27;20.48;;;18.67;;
13807;SDS011;40769;51.512;5.494;2022-08-19T10:36:53;15.90;;;14.57;;
13807;SDS011;40769;51.512;5.494;2022-08-19T10:39:19;15.52;;;14.25;;
13807;SDS011;40769;51.512;5.494;2022-08-19T10:41:45;21.77;;;19.90;;
13807;SDS011;40769;51.512;5.494;2022-08-19T10:44:12;17.88;;;16.38;;
13807;SDS011;40769;51.512;5.494;2022-08-19T10:46:39;19.08;;;17.40;;
13807;SDS011;40769;51.512;5.494;2022-08-19T10:49:13;16.60;;;15.27;;
13807;SDS011;40769;51.512;5.494;2022-08-19T10:51:39;22.15;;;20.17;;
13807;SDS011;40769;51.512;5.494;2022-08-19T10:54:24;22.05;;;20.27;;
13807;SDS011;40769;51.512;5.494;2022-08-19T10:57:10;18.63;;;17.23;;
13807;SDS011;40769;51.512;5.494;2022-08-19T10:59:36;20.08;;;18.45;;
13807;SDS011;40769;51.512;5.494;2022-08-19T11:02:03;18.48;;;17.02;;
13807;SDS011;40769;51.512;5.494;2022-08-19T11:04:31;13.77;;;12.68;;
13807;SDS011;40769;51.512;5.494;2022-08-19T11:06:58;19.52;;;17.65;;
13807;SDS011;40769;51.512;5.494;2022-08-19T11:09:24;19.30;;;17.60;;
13807;SDS011;40769;51.512;5.494;2022-08-19T11:11:52;15.32;;;14.02;;
13807;SDS011;40769;51.512;5.494;2022-08-19T11:14:19;11.80;;;10.90;;
13807;SDS011;40769;51.512;5.494;2022-08-19T11:16:46;13.63;;;12.52;;
13807;SDS011;40769;51.512;5.494;2022-08-19T11:19:13;14.10;;;12.98;;
13807;SDS011;40769;51.512;5.494;2022-08-19T11:21:42;11.75;;;10.75;;
13807;SDS011;40769;51.512;5.494;2022-08-19T11:24:10;13.10;;;12.10;;
13807;SDS011;40769;51.512;5.494;2022-08-19T11:26:38;12.65;;;11.60;;
13807;SDS011;40769;51.512;5.494;2022-08-19T11:29:06;12.65;;;11.63;;
13807;SDS011;40769;51.512;5.494;2022-08-19T11:31:36;19.08;;;17.45;;
13807;SDS011;40769;51.512;5.494;2022-08-19T11:34:04;21.73;;;19.83;;
13807;SDS011;40769;51.512;5.494;2022-08-19T11:36:31;18.15;;;16.58;;
13807;SDS011;40769;51.512;5.494;2022-08-19T11:38:59;12.82;;;11.82;;
13807;SDS011;40769;51.512;5.494;2022-08-19T11:41:25;13.52;;;12.43;;
13807;SDS011;40769;51.512;5.494;2022-08-19T11:43:51;11.60;;;10.73;;
13807;SDS011;40769;51.512;5.494;2022-08-19T11:46:20;15.73;;;14.50;;
13807;SDS011;40769;51.512;5.494;2022-08-19T11:48:47;23.17;;;21.17;;
13807;SDS011;40769;51.512;5.494;2022-08-19T11:51:16;23.45;;;21.42;;
13807;SDS011;40769;51.512;5.494;2022-08-19T11:53:44;19.67;;;18.08;;
13807;SDS011;40769;51.512;5.494;2022-08-19T11:56:10;14.43;;;13.32;;
13807;SDS011;40769;51.512;5.494;2022-08-19T11:58:36;14.70;;;13.57;;
13807;SDS011;40769;51.512;5.494;2022-08-19T12:01:06;10.85;;;9.95;;
13807;SDS011;40769;51.512;5.494;2022-08-19T12:03:36;17.65;;;16.08;;
13807;SDS011;40769;51.512;5.494;2022-08-19T12:06:06;12.45;;;11.52;;
13807;SDS011;40769;51.512;5.494;2022-08-19T12:08:33;13.90;;;12.80;;
13807;SDS011;40769;51.512;5.494;2022-08-19T12:10:59;12.25;;;11.32;;
13807;SDS011;40769;51.512;5.494;2022-08-19T12:13:26;15.50;;;14.30;;
13807;SDS011;40769;51.512;5.494;2022-08-19T12:15:53;16.65;;;15.15;;
13807;SDS011;40769;51.512;5.494;2022-08-19T12:18:19;13.50;;;12.50;;
13807;SDS011;40769;51.512;5.494;2022-08-19T12:20:45;14.73;;;13.57;;
13807;SDS011;40769;51.512;5.494;2022-08-19T12:23:11;15.00;;;13.88;;
13807;SDS011;40769;51.512;5.494;2022-08-19T12:25:37;10.20;;;9.45;;
13807;SDS011;40769;51.512;5.494;2022-08-19T12:28:15;13.32;;;12.23;;
13807;SDS011;40769;51.512;5.494;2022-08-19T12:30:41;11.45;;;10.55;;
13807;SDS011;40769;51.512;5.494;2022-08-19T12:33:07;17.45;;;16.00;;
13807;SDS011;40769;51.512;5.494;2022-08-19T12:35:32;13.45;;;12.35;;
13807;SDS011;40769;51.512;5.494;2022-08-19T12:37:58;15.60;;;14.32;;
13807;SDS011;40769;51.512;5.494;2022-08-19T12:40:26;13.68;;;12.57;;
13807;SDS011;40769;51.512;5.494;2022-08-19T12:42:52;14.68;;;13.55;;
13807;SDS011;40769;51.512;5.494;2022-08-19T12:45:18;13.82;;;12.65;;
13807;SDS011;40769;51.512;5.494;2022-08-19T12:47:44;15.82;;;14.52;;
13807;SDS011;40769;51.512;5.494;2022-08-19T12:50:11;12.93;;;12.02;;
13807;SDS011;40769;51.512;5.494;2022-08-19T12:52:36;16.55;;;15.15;;
13807;SDS011;40769;51.512;5.494;2022-08-19T12:55:02;16.85;;;15.45;;
13807;SDS011;40769;51.512;5.494;2022-08-19T12:57:30;17.27;;;15.82;;
13807;SDS011;40769;51.512;5.494;2022-08-19T13:00:21;14.02;;;12.98;;
13807;SDS011;40769;51.512;5.494;2022-08-19T13:02:48;16.13;;;14.88;;
13807;SDS011;40769;51.512;5.494;2022-08-19T13:05:17;13.80;;;12.70;;
13807;SDS011;40769;51.512;5.494;2022-08-19T13:07:45;18.30;;;16.85;;
13807;SDS011;40769;51.512;5.494;2022-08-19T13:10:12;13.55;;;12.40;;
13807;SDS011;40769;51.512;5.494;2022-08-19T13:12:46;16.98;;;15.63;;
13807;SDS011;40769;51.512;5.494;2022-08-19T13:15:13;14.57;;;13.45;;
13807;SDS011;40769;51.512;5.494;2022-08-19T13:17:45;16.38;;;15.07;;
13807;SDS011;40769;51.512;5.494;2022-08-19T13:20:16;13.77;;;12.68;;
13807;SDS011;40769;51.512;5.494;2022-08-19T13:22:44;18.17;;;16.58;;
13807;SDS011;40769;51.512;5.494;2022-08-19T13:25:10;11.88;;;10.98;;
13807;SDS011;40769;51.512;5.494;2022-08-19T13:27:37;12.48;;;11.38;;
13807;SDS011;40769;51.512;5.494;2022-08-19T13:30:03;10.98;;;10.05;;
13807;SDS011;40769;51.512;5.494;2022-08-19T13:32:49;9.88;;;9.07;;
13807;SDS011;40769;51.512;5.494;2022-08-19T13:35:33;9.88;;;9.07;;
13807;SDS011;40769;51.512;5.494;2022-08-19T13:37:59;10.32;;;9.52;;
13807;SDS011;40769;51.512;5.494;2022-08-19T13:40:25;9.40;;;8.70;;
13807;SDS011;40769;51.512;5.494;2022-08-19T13:42:52;10.40;;;9.50;;
13807;SDS011;40769;51.512;5.494;2022-08-19T13:45:23;10.15;;;9.35;;
13807;SDS011;40769;51.512;5.494;2022-08-19T13:47:50;8.35;;;7.75;;
13807;SDS011;40769;51.512;5.494;2022-08-19T13:50:19;8.27;;;7.68;;
13807;SDS011;40769;51.512;5.494;2022-08-19T13:52:47;8.02;;;7.43;;
13807;SDS011;40769;51.512;5.494;2022-08-19T13:55:14;7.60;;;7.00;;
13807;SDS011;40769;51.512;5.494;2022-08-19T13:57:40;8.82;;;8.10;;
13807;SDS011;40769;51.512;5.494;2022-08-19T14:00:11;10.45;;;9.55;;
13807;SDS011;40769;51.512;5.494;2022-08-19T14:02:39;9.02;;;8.32;;
13807;SDS011;40769;51.512;5.494;2022-08-19T14:05:06;10.27;;;9.48;;
13807;SDS011;40769;51.512;5.494;2022-08-19T14:07:34;7.45;;;6.85;;
13807;SDS011;40769;51.512;5.494;2022-08-19T14:10:01;9.30;;;8.60;;
13807;SDS011;40769;51.512;5.494;2022-08-19T14:12:28;10.48;;;9.60;;
13807;SDS011;40769;51.512;5.494;2022-08-19T14:14:54;9.80;;;8.80;;
13807;SDS011;40769;51.512;5.494;2022-08-19T14:17:19;8.85;;;8.15;;
13807;SDS011;40769;51.512;5.494;2022-08-19T14:19:46;9.32;;;8.60;;
13807;SDS011;40769;51.512;5.494;2022-08-19T14:22:12;7.60;;;7.00;;
13807;SDS011;40769;51.512;5.494;2022-08-19T14:24:38;6.20;;;5.72;;
13807;SDS011;40769;51.512;5.494;2022-08-19T14:27:06;7.07;;;6.47;;
13807;SDS011;40769;51.512;5.494;2022-08-19T14:29:32;8.25;;;7.65;;
13807;SDS011;40769;51.512;5.494;2022-08-19T14:31:59;8.02;;;7.43;;
13807;SDS011;40769;51.512;5.494;2022-08-19T14:34:25;9.07;;;8.38;;
13807;SDS011;40769;51.512;5.494;2022-08-19T14:36:51;6.75;;;6.25;;
13807;SDS011;40769;51.512;5.494;2022-08-19T14:39:17;9.07;;;8.38;;
13807;SDS011;40769;51.512;5.494;2022-08-19T14:41:43;6.82;;;6.32;;